Time;durP1;ratioP1;P1;durP2;ratioP2;P2;SDS_P1;SDS_P2;PMS_P1;PMS_P2;Temp;Humidity;BMP_temperature;BMP_pressure;BME280_temperature;BME280_humidity;BME280_pressure;Samples;Min_cycle;Max_cycle;Signal;HPM_P1;HPM_P2
2023/08/28 00:00:45;;;;;;;;;1.00;1.00;;;;;15.85;71.88;100705.59;6192123;23;45196;-91
2023/08/28 00:03:11;;;;;;;;;4.00;2.33;;;;;15.88;71.60;100706.19;6187140;22;45157;-90
2023/08/28 00:05:36;;;;;;;;;2.00;2.00;;;;;15.87;71.66;100711.69;6192919;22;45211;-87
2023/08/28 00:08:03;;;;;;;;;4.00;2.00;;;;;15.65;71.89;100674.94;6188412;23;45313;-89
2023/08/28 00:10:28;;;;;;;;;2.00;1.33;;;;;15.88;71.47;100706.19;6188413;23;45198;-88
2023/08/28 00:12:54;;;;;;;;;2.33;2.00;;;;;15.80;71.72;100689.84;6189570;23;45150;-87
2023/08/28 00:15:19;;;;;;;;;1.00;1.00;;;;;15.90;71.66;100704.28;6189431;23;60676;-90
2023/08/28 00:17:46;;;;;;;;;2.00;1.00;;;;;15.66;71.08;100665.94;6191705;22;45926;-89
2023/08/28 00:20:12;;;;;;;;;1.00;1.00;;;;;15.92;71.40;100706.84;6190347;23;45287;-85
2023/08/28 00:22:38;;;;;;;;;2.00;2.00;;;;;15.95;71.16;100706.59;6191024;23;45276;-86
2023/08/28 00:25:07;;;;;;;;;1.00;1.00;;;;;15.97;71.02;100703.78;6189084;22;45344;-88
2023/08/28 00:27:32;;;;;;;;;1.33;1.33;;;;;15.98;71.07;100701.00;6187559;23;46977;-91
2023/08/28 00:29:57;;;;;;;;;2.00;2.00;;;;;15.92;71.78;100685.38;6187163;23;45169;-88
2023/08/28 00:32:24;;;;;;;;;5.00;2.00;;;;;16.01;70.81;100700.75;6186906;23;45173;-89
2023/08/28 00:34:50;;;;;;;;;2.00;2.00;;;;;15.99;70.92;100693.81;6187447;23;45447;-89
2023/08/28 00:37:15;;;;;;;;;1.00;1.00;;;;;15.97;70.59;100688.56;6187056;22;46196;-90
2023/08/28 00:39:41;;;;;;;;;2.00;2.00;;;;;16.03;70.91;100693.47;6185785;23;45474;-88
2023/08/28 00:42:06;;;;;;;;;1.00;1.00;;;;;15.96;71.47;100686.84;6187991;23;44732;-88
2023/08/28 00:44:32;;;;;;;;;2.00;2.00;;;;;15.91;71.26;100675.63;6190493;23;45245;-89
2023/08/28 00:46:57;;;;;;;;;2.33;1.00;;;;;15.98;71.14;100678.69;6184589;23;47925;-88
2023/08/28 00:49:22;;;;;;;;;2.67;2.00;;;;;15.99;70.68;100675.88;6187415;22;45275;-89
2023/08/28 00:51:49;;;;;;;;;3.00;2.00;;;;;15.92;71.85;100675.50;6185545;23;58340;-90
2023/08/28 00:54:14;;;;;;;;;2.00;2.00;;;;;15.78;71.13;100662.31;6185770;22;45513;-88
2023/08/28 00:56:40;;;;;;;;;2.67;1.00;;;;;15.83;71.52;100670.84;6186424;23;46045;-90
2023/08/28 00:59:06;;;;;;;;;3.67;1.00;;;;;15.91;71.38;100676.50;6184480;23;45944;-83
2023/08/28 01:01:31;;;;;;;;;2.00;2.00;;;;;15.86;71.54;100659.88;6186742;22;45193;-88
2023/08/28 01:03:57;;;;;;;;;3.67;2.00;;;;;15.89;71.59;100659.66;6189301;23;45129;-88
2023/08/28 01:06:25;;;;;;;;;2.67;1.33;;;;;15.94;71.44;100670.03;6187157;22;45335;-84
2023/08/28 01:09:03;;;;;;;;;1.67;1.33;;;;;15.81;71.72;100645.97;6187463;23;45462;-86
2023/08/28 01:11:56;;;;;;;;;3.00;1.00;;;;;15.92;71.47;100664.78;6189210;22;45322;-88
2023/08/28 01:14:25;;;;;;;;;5.00;2.00;;;;;15.90;71.20;100661.38;6188248;22;45630;-87
2023/08/28 01:16:55;;;;;;;;;1.00;1.00;;;;;15.98;71.29;100673.31;6186900;22;45302;-89
2023/08/28 01:19:36;;;;;;;;;1.00;1.00;;;;;15.89;71.54;100661.50;6186824;22;45309;-90
2023/08/28 01:22:10;;;;;;;;;1.33;1.33;;;;;15.94;71.83;100661.97;6186322;22;45181;-88
2023/08/28 01:24:44;;;;;;;;;2.00;2.00;;;;;15.98;71.21;100662.59;6185609;22;45329;-85
2023/08/28 01:27:12;;;;;;;;;5.00;2.00;;;;;15.97;71.01;100667.09;6185250;22;46669;-88
2023/08/28 01:29:37;;;;;;;;;1.00;1.00;;;;;15.75;71.15;100630.34;6185491;22;45561;-83
2023/08/28 01:32:03;;;;;;;;;2.00;1.00;;;;;15.99;71.35;100658.94;6184884;23;57179;-82
2023/08/28 01:34:28;;;;;;;;;1.33;1.33;;;;;15.99;71.28;100658.94;6185491;23;45531;-82
2023/08/28 01:36:58;;;;;;;;;1.00;1.00;;;;;15.85;71.43;100634.03;6184703;23;45252;-83
2023/08/28 01:39:31;;;;;;;;;2.00;2.00;;;;;15.87;71.26;100641.94;6184858;22;45457;-82
2023/08/28 01:41:58;;;;;;;;;1.00;1.00;;;;;15.99;71.51;100642.84;6184950;22;45212;-80
2023/08/28 01:44:28;;;;;;;;;3.00;2.00;;;;;16.02;71.15;100639.94;6184497;22;45847;-81
2023/08/28 01:46:53;;;;;;;;;4.00;1.00;;;;;15.94;71.63;100640.53;6194425;22;45267;-80
2023/08/28 01:49:18;;;;;;;;;3.33;3.33;;;;;15.98;71.72;100641.13;6197871;23;45220;-80
2023/08/28 01:51:44;;;;;;;;;5.00;2.00;;;;;15.91;71.71;100643.44;6200598;22;45457;-79
2023/08/28 01:54:09;;;;;;;;;2.67;2.67;;;;;15.91;71.43;100641.63;6205409;23;44821;-80
2023/08/28 01:56:34;;;;;;;;;4.00;2.00;;;;;15.91;72.11;100633.56;6203432;22;45177;-80
2023/08/28 01:59:02;;;;;;;;;2.00;2.00;;;;;15.80;71.71;100622.81;6205354;23;45172;-79
2023/08/28 02:01:27;;;;;;;;;1.67;1.67;;;;;15.83;71.95;100617.22;6208248;22;44710;-80
2023/08/28 02:03:53;;;;;;;;;2.67;1.33;;;;;15.83;71.84;100611.84;6204104;23;45358;-84
2023/08/28 02:06:18;;;;;;;;;3.00;2.00;;;;;15.90;71.40;100620.28;6200907;23;45790;-83
2023/08/28 02:08:44;;;;;;;;;1.00;1.00;;;;;15.91;71.38;100625.53;6193834;23;45157;-81
2023/08/28 02:11:10;;;;;;;;;3.00;1.00;;;;;15.85;72.00;100615.25;6190617;22;45348;-86
2023/08/28 02:13:35;;;;;;;;;4.00;2.00;;;;;16.00;71.69;100636.50;6193631;22;45189;-89
2023/08/28 02:16:02;;;;;;;;;2.00;2.00;;;;;15.92;71.83;100621.88;6189847;22;45359;-89
2023/08/28 02:18:27;;;;;;;;;1.00;1.00;;;;;16.10;71.59;100646.41;6185938;22;45184;-87
2023/08/28 02:20:53;;;;;;;;;3.00;1.00;;;;;16.11;71.84;100644.56;6186597;23;45205;-90
2023/08/28 02:23:19;;;;;;;;;1.00;1.00;;;;;15.97;71.91;100607.22;6186891;22;45394;-88
2023/08/28 02:25:47;;;;;;;;;1.00;1.00;;;;;16.10;71.83;100624.94;6187042;23;45806;-87
2023/08/28 02:28:12;;;;;;;;;1.00;1.00;;;;;16.04;72.23;100628.09;6186418;23;45414;-88
2023/08/28 02:30:38;;;;;;;;;1.33;1.33;;;;;15.95;72.31;100614.56;6185677;23;55131;-87
2023/08/28 02:33:04;;;;;;;;;1.00;1.00;;;;;15.96;72.66;100624.31;6187299;22;45308;-89
2023/08/28 02:35:29;;;;;;;;;1.33;1.33;;;;;15.70;72.75;100595.00;6186495;23;45253;-88
2023/08/28 02:37:54;;;;;;;;;2.33;2.00;;;;;15.79;73.12;100615.75;6185182;23;56061;-88
2023/08/28 02:40:20;;;;;;;;;1.00;1.00;;;;;15.96;72.89;100640.41;6183746;23;59112;-87
2023/08/28 02:42:45;;;;;;;;;2.33;2.33;;;;;15.91;73.20;100641.63;6188567;22;45534;-87
2023/08/28 02:45:10;;;;;;;;;2.67;1.00;;;;;15.91;73.06;100638.94;6186739;23;45388;-86
2023/08/28 02:47:36;;;;;;;;;4.00;2.33;;;;;15.68;73.35;100590.72;6184897;23;45374;-88
2023/08/28 02:50:01;;;;;;;;;2.00;2.00;;;;;15.99;73.03;100645.53;6183712;23;45873;-87
2023/08/28 02:52:26;;;;;;;;;2.00;1.00;;;;;15.99;73.17;100648.19;6185035;22;45732;-87
2023/08/28 02:54:52;;;;;;;;;2.33;2.00;;;;;15.89;73.08;100634.66;6184895;23;45570;-87
2023/08/28 02:57:18;;;;;;;;;1.00;1.00;;;;;15.92;73.56;100654.06;6186457;23;45336;-82
2023/08/28 02:59:43;;;;;;;;;1.00;1.00;;;;;15.81;74.32;100645.13;6185610;23;45317;-88
2023/08/28 03:02:09;;;;;;;;;3.00;1.33;;;;;15.77;74.22;100649.88;6191235;22;45155;-86
2023/08/28 03:04:35;;;;;;;;;2.00;1.00;;;;;15.74;73.59;100644.72;6192122;23;45101;-87
2023/08/28 03:07:00;;;;;;;;;2.00;1.00;;;;;15.73;75.06;100648.38;6194728;23;45275;-88
2023/08/28 03:09:26;;;;;;;;;0.67;0.67;;;;;15.69;74.44;100641.56;6188633;22;45204;-89
2023/08/28 03:11:51;;;;;;;;;0.00;0.00;;;;;15.69;74.75;100654.97;6185994;23;45185;-87
2023/08/28 03:14:16;;;;;;;;;2.00;2.00;;;;;15.61;75.22;100654.69;6187308;22;45476;-83
2023/08/28 03:16:42;;;;;;;;;1.33;1.00;;;;;15.57;74.85;100647.81;6191628;22;45369;-87
2023/08/28 03:19:07;;;;;;;;;3.00;2.00;;;;;15.47;75.36;100641.44;6194166;23;45418;-89
2023/08/28 03:21:34;;;;;;;;;2.00;2.00;;;;;15.16;76.32;100619.63;6194766;23;45447;-85
2023/08/28 03:23:59;;;;;;;;;0.33;0.33;;;;;15.41;76.23;100655.31;6193236;22;45268;-85
2023/08/28 03:26:25;;;;;;;;;1.00;1.00;;;;;15.45;76.37;100667.50;6190913;23;45370;-83
2023/08/28 03:28:50;;;;;;;;;2.67;2.67;;;;;15.37;75.96;100648.47;6187232;23;45277;-88
2023/08/28 03:31:16;;;;;;;;;1.00;1.00;;;;;15.24;76.59;100633.31;6185543;22;62960;-85
2023/08/28 03:33:41;;;;;;;;;5.00;2.00;;;;;15.24;76.41;100635.16;6184984;23;66504;-87
2023/08/28 03:36:08;;;;;;;;;2.00;2.00;;;;;15.48;76.35;100664.59;6184634;23;45381;-82
2023/08/28 03:38:33;;;;;;;;;3.00;1.00;;;;;15.47;76.04;100668.22;6184361;23;45313;-83
2023/08/28 03:40:58;;;;;;;;;1.00;1.00;;;;;15.50;76.11;100668.03;6183355;23;53769;-86
2023/08/28 03:43:24;;;;;;;;;3.00;2.00;;;;;15.53;75.87;100667.78;6183755;23;59609;-90
2023/08/28 03:45:49;;;;;;;;;1.00;1.00;;;;;15.42;75.59;100657.03;6208561;22;58221;-88
2023/08/28 03:48:14;;;;;;;;;2.33;1.00;;;;;15.59;75.79;100686.97;6185151;23;45220;-85
2023/08/28 03:50:40;;;;;;;;;25.33;23.67;;;;;15.60;75.96;100674.41;6185431;22;45604;-89
2023/08/28 03:53:05;;;;;;;;;5.00;2.00;;;;;15.50;75.89;100660.84;6184919;22;45256;-83
2023/08/28 03:55:31;;;;;;;;;3.00;3.00;;;;;15.45;75.67;100656.78;6184031;22;45288;-86
2023/08/28 03:57:57;;;;;;;;;1.00;1.00;;;;;15.59;76.10;100678.91;6183817;23;45374;-87
2023/08/28 04:00:23;;;;;;;;;2.00;2.00;;;;;15.57;76.08;100685.34;6185175;22;45320;-84
2023/08/28 04:02:50;;;;;;;;;2.00;2.00;;;;;15.48;76.22;100665.44;6185377;23;45505;-87
2023/08/28 04:05:18;;;;;;;;;1.00;1.00;;;;;15.63;76.43;100687.63;6185515;22;45349;-83
2023/08/28 04:07:43;;;;;;;;;2.00;1.00;;;;;15.68;76.06;100684.56;6182666;23;45250;-87
2023/08/28 04:10:10;;;;;;;;;2.00;2.00;;;;;15.70;75.89;100686.16;6184417;23;45165;-83
2023/08/28 04:12:35;;;;;;;;;2.00;2.00;;;;;15.77;75.44;100690.09;6184611;22;45435;-84
2023/08/28 04:15:02;;;;;;;;;1.00;1.00;;;;;15.67;75.10;100667.63;6184420;22;45441;-83
2023/08/28 04:17:27;;;;;;;;;2.00;2.00;;;;;15.84;75.57;100685.97;6183657;23;45359;-85
2023/08/28 04:19:54;;;;;;;;;2.00;1.00;;;;;15.82;75.39;100679.00;6183829;23;45284;-82
2023/08/28 04:22:20;;;;;;;;;1.00;1.00;;;;;15.76;74.97;100671.44;6184525;22;45382;-81
2023/08/28 04:24:46;;;;;;;;;2.00;2.00;;;;;15.80;74.92;100673.78;6184913;22;45311;-89
2023/08/28 04:27:12;;;;;;;;;2.33;2.33;;;;;15.87;75.37;100676.81;6184584;22;45315;-89
2023/08/28 04:29:38;;;;;;;;;2.00;2.00;;;;;15.88;75.16;100679.38;6186032;22;45219;-88
2023/08/28 04:32:04;;;;;;;;;1.00;1.00;;;;;15.83;74.91;100665.47;6186702;22;45255;-86
2023/08/28 04:34:29;;;;;;;;;1.67;1.67;;;;;15.86;74.91;100665.22;6186756;22;45134;-85
2023/08/28 04:36:54;;;;;;;;;5.00;1.33;;;;;15.96;74.94;100670.75;6185545;23;58151;-88
2023/08/28 04:39:22;;;;;;;;;1.00;1.00;;;;;15.97;74.65;100672.47;6187230;22;45349;-87
2023/08/28 04:41:48;;;;;;;;;1.67;1.00;;;;;15.96;74.91;100672.59;6186220;22;45382;-87
2023/08/28 04:44:13;;;;;;;;;2.00;1.00;;;;;15.98;74.67;100674.16;6187284;22;45370;-81
2023/08/28 04:46:39;;;;;;;;;1.00;1.00;;;;;15.81;74.49;100643.28;6191537;23;45290;-88
2023/08/28 04:49:04;;;;;;;;;1.00;1.00;;;;;15.94;75.03;100670.03;6185603;23;45355;-89
2023/08/28 04:51:29;;;;;;;;;1.00;1.00;;;;;15.87;75.72;100666.94;6186807;23;46401;-86
2023/08/28 04:53:55;;;;;;;;;2.00;2.00;;;;;15.89;75.23;100670.38;6187067;23;45238;-85
2023/08/28 04:56:20;;;;;;;;;1.33;1.33;;;;;15.72;75.31;100640.47;6186334;22;45247;-90
2023/08/28 04:58:45;;;;;;;;;3.00;1.67;;;;;15.87;75.37;100666.09;6185870;23;49123;-86
2023/08/28 05:01:10;;;;;;;;;2.67;2.00;;;;;15.83;75.45;100659.25;6186471;22;45669;-85
2023/08/28 05:03:37;;;;;;;;;2.00;2.00;;;;;15.89;75.55;100654.28;6192965;23;45342;-83
2023/08/28 05:06:02;;;;;;;;;3.00;2.33;;;;;15.91;75.46;100657.72;6187048;23;64095;-88
2023/08/28 05:08:28;;;;;;;;;2.00;2.00;;;;;15.90;75.62;100655.16;6189920;23;45320;-87
2023/08/28 05:10:53;;;;;;;;;1.00;1.00;;;;;15.92;75.51;100658.56;6193187;23;53485;-87
2023/08/28 05:13:18;;;;;;;;;3.67;2.00;;;;;15.89;75.19;100648.09;6187953;23;45253;-88
2023/08/28 05:15:44;;;;;;;;;3.00;3.00;;;;;15.92;75.37;100634.44;6186999;23;45376;-88
2023/08/28 05:18:11;;;;;;;;;2.67;2.00;;;;;15.97;75.35;100642.09;6187301;22;45574;-84
2023/08/28 05:20:37;;;;;;;;;1.67;1.33;;;;;15.99;75.15;100637.47;6185970;23;46094;-85
2023/08/28 05:23:03;;;;;;;;;2.00;2.00;;;;;16.13;74.66;100656.03;6184456;23;45373;-85
2023/08/28 05:25:30;;;;;;;;;2.00;2.00;;;;;16.10;74.84;100662.50;6187048;22;45239;-87
2023/08/28 05:27:56;;;;;;;;;3.67;2.00;;;;;15.99;75.16;100654.41;6185273;23;45692;-85
2023/08/28 05:30:21;;;;;;;;;2.00;2.00;;;;;15.93;75.51;100654.91;6184611;22;46305;-84
2023/08/28 05:32:46;;;;;;;;;2.00;2.00;;;;;15.91;75.46;100648.81;6214726;22;45288;-86
2023/08/28 05:35:12;;;;;;;;;1.00;1.00;;;;;15.85;74.88;100630.50;6197555;23;45203;-85
2023/08/28 05:37:40;;;;;;;;;2.00;0.00;;;;;16.01;75.33;100659.66;6195557;23;44630;-81
2023/08/28 05:40:13;;;;;;;;;1.00;1.00;;;;;15.69;75.20;100614.75;6193771;23;46578;-85
2023/08/28 05:42:39;;;;;;;;;2.00;2.00;;;;;15.93;75.12;100639.66;6188229;23;45314;-87
2023/08/28 05:45:05;;;;;;;;;3.00;1.33;;;;;15.99;74.99;100653.56;6190087;23;45513;-87
2023/08/28 05:47:32;;;;;;;;;2.67;2.67;;;;;16.06;75.14;100654.81;6186288;22;45292;-85
2023/08/28 05:49:58;;;;;;;;;2.00;2.00;;;;;16.11;75.01;100666.88;6188097;23;47832;-86
2023/08/28 05:52:25;;;;;;;;;2.00;2.00;;;;;16.15;74.98;100659.47;6199974;23;44673;-84
2023/08/28 05:54:51;;;;;;;;;2.67;1.67;;;;;16.15;74.99;100656.78;6224881;22;45253;-83
2023/08/28 05:57:18;;;;;;;;;2.00;2.00;;;;;16.03;74.91;100628.22;6195305;23;45251;-90
2023/08/28 05:59:44;;;;;;;;;1.33;1.00;;;;;16.14;75.08;100644.31;6189603;23;45257;-85
2023/08/28 06:02:09;;;;;;;;;1.33;1.33;;;;;16.05;74.82;100631.66;6189355;22;48221;-82
2023/08/28 06:04:34;;;;;;;;;3.33;2.00;;;;;16.08;74.84;100626.03;6193077;23;45142;-87
2023/08/28 06:06:59;;;;;;;;;4.67;2.67;;;;;16.29;74.35;100650.34;6190364;22;45201;-86
2023/08/28 06:09:25;;;;;;;;;2.33;2.00;;;;;16.22;74.63;100628.47;6189689;22;46128;-86
2023/08/28 06:11:51;;;;;;;;;2.33;2.00;;;;;16.29;74.28;100645.81;6192836;22;45200;-82
2023/08/28 06:14:18;;;;;;;;;3.00;3.00;;;;;16.29;74.16;100640.44;6192802;23;45183;-84
2023/08/28 06:16:43;;;;;;;;;1.00;1.00;;;;;15.79;74.33;100564.78;6195840;23;45005;-85
2023/08/28 06:19:10;;;;;;;;;3.33;2.00;;;;;15.89;74.21;100568.47;6188731;22;45314;-86
2023/08/28 06:21:35;;;;;;;;;6.00;3.00;;;;;16.35;74.34;100644.47;6186057;23;58304;-87
2023/08/28 06:24:01;;;;;;;;;3.00;1.00;;;;;15.91;74.35;100571.88;6190387;23;45330;-82
2023/08/28 06:26:26;;;;;;;;;1.67;1.67;;;;;16.18;74.34;100624.34;6185998;23;45378;-86
2023/08/28 06:28:52;;;;;;;;;2.00;1.00;;;;;16.28;74.79;100643.25;6188063;23;45394;-83
2023/08/28 06:31:17;;;;;;;;;3.00;3.00;;;;;16.08;75.21;100626.88;6186005;23;45124;-84
2023/08/28 06:33:42;;;;;;;;;4.33;4.00;;;;;16.19;75.11;100639.47;6186211;23;45157;-86
2023/08/28 06:36:07;;;;;;;;;3.00;3.00;;;;;16.26;75.49;100651.41;6186045;23;48654;-89
2023/08/28 06:38:33;;;;;;;;;1.00;1.00;;;;;16.15;75.32;100638.00;6189079;23;47067;-85
2023/08/28 06:41:00;;;;;;;;;4.67;2.00;;;;;16.25;75.73;100648.84;6185396;23;59256;-88
2023/08/28 06:43:26;;;;;;;;;4.00;4.00;;;;;16.37;75.24;100648.72;6215325;22;45410;-89
2023/08/28 06:45:51;;;;;;;;;2.00;2.00;;;;;16.56;74.75;100645.44;6192674;22;45252;-83
2023/08/28 06:48:17;;;;;;;;;4.00;2.67;;;;;16.49;74.25;100642.38;6189842;22;45296;-84
2023/08/28 06:50:43;;;;;;;;;3.00;2.00;;;;;16.42;74.20;100602.75;6194822;23;50894;-83
2023/08/28 06:53:09;;;;;;;;;2.00;2.00;;;;;16.66;74.21;100622.22;6191761;23;45312;-86
2023/08/28 06:55:36;;;;;;;;;2.00;2.00;;;;;16.77;73.42;100624.06;6192623;23;45562;-87
2023/08/28 06:58:01;;;;;;;;;3.00;3.00;;;;;16.54;73.15;100574.91;6189361;22;45282;-83
2023/08/28 07:00:26;;;;;;;;;2.00;2.00;;;;;16.48;73.26;100575.41;6199212;23;44725;-85
2023/08/28 07:02:52;;;;;;;;;5.00;3.00;;;;;16.50;72.76;100558.19;6203947;22;45177;-83
2023/08/28 07:05:18;;;;;;;;;2.00;2.00;;;;;17.19;72.33;100621.53;6205094;23;44801;-82
2023/08/28 07:07:43;;;;;;;;;5.00;3.00;;;;;17.33;71.87;100632.84;6206941;22;45477;-86
2023/08/28 07:10:08;;;;;;;;;6.00;3.00;;;;;17.18;71.40;100590.25;6206990;23;47794;-82
2023/08/28 07:12:34;;;;;;;;;5.00;5.00;;;;;17.44;71.20;100617.63;6231929;22;44618;-82
2023/08/28 07:15:41;;;;;;;;;3.00;3.00;;;;;17.59;71.03;100621.75;6198881;23;45398;-86
2023/08/28 07:18:06;;;;;;;;;3.00;3.00;;;;;17.52;70.99;100599.03;6194198;23;45271;-85
2023/08/28 07:20:34;;;;;;;;;4.00;4.00;;;;;17.60;70.70;100593.88;6192476;23;45153;-82
2023/08/28 07:22:59;;;;;;;;;4.33;4.00;;;;;17.38;70.18;100555.34;6186942;22;45263;-85
2023/08/28 07:25:25;;;;;;;;;7.67;3.33;;;;;17.72;70.65;100625.13;6184961;22;45370;-86
2023/08/28 07:27:51;;;;;;;;;2.67;2.67;;;;;17.44;71.04;100596.97;6185899;23;46462;-89
2023/08/28 07:30:16;;;;;;;;;5.67;4.00;;;;;17.37;71.41;100601.19;6185973;22;45393;-88
2023/08/28 07:32:42;;;;;;;;;3.00;3.00;;;;;17.40;72.01;100628.66;6183919;22;45253;-88
2023/08/28 07:35:08;;;;;;;;;4.00;4.00;;;;;17.36;72.12;100626.38;6183955;23;45589;-86
2023/08/28 07:37:34;;;;;;;;;4.33;3.33;;;;;17.42;72.04;100631.22;6182514;23;46283;-86
2023/08/28 07:40:00;;;;;;;;;4.00;3.67;;;;;17.42;72.43;100627.66;6183484;22;45443;-85
2023/08/28 07:42:26;;;;;;;;;5.33;5.33;;;;;17.27;72.15;100611.00;6184404;22;45300;-84
2023/08/28 07:44:51;;;;;;;;;2.67;2.67;;;;;17.20;72.19;100573.03;6188098;23;45521;-88
2023/08/28 07:47:17;;;;;;;;;6.67;4.00;;;;;17.62;71.78;100622.31;6185878;23;45965;-88
2023/08/28 07:49:42;;;;;;;;;6.67;6.33;;;;;17.75;71.63;100624.00;6186054;22;45252;-87
2023/08/28 07:52:08;;;;;;;;;6.33;6.33;;;;;17.84;70.82;100620.50;6187954;22;45358;-86
2023/08/28 07:54:33;;;;;;;;;4.67;4.67;;;;;17.75;70.99;100618.63;6186936;22;45399;-87
2023/08/28 07:56:58;;;;;;;;;4.00;4.00;;;;;17.49;71.24;100591.22;6182149;23;46997;-86
2023/08/28 07:59:24;;;;;;;;;3.33;3.00;;;;;17.61;71.86;100626.00;6192522;22;45747;-82
2023/08/28 08:01:49;;;;;;;;;7.00;7.00;;;;;17.49;72.05;100618.97;6183166;22;45479;-82
2023/08/28 08:04:14;;;;;;;;;3.33;3.33;;;;;17.62;71.98;100632.22;6186539;23;45332;-88
2023/08/28 08:06:40;;;;;;;;;6.00;5.33;;;;;17.76;71.75;100629.25;6187145;23;46090;-90
2023/08/28 08:09:05;;;;;;;;;6.00;5.00;;;;;17.78;71.18;100610.28;6182374;23;45427;-89
2023/08/28 08:11:32;;;;;;;;;5.67;5.67;;;;;18.09;70.70;100638.06;6184332;22;45418;-86
2023/08/28 08:13:57;;;;;;;;;5.67;5.67;;;;;18.03;70.34;100620.63;6183567;22;45392;-86
2023/08/28 08:16:23;;;;;;;;;8.33;5.00;;;;;18.20;70.10;100641.53;6181820;22;45340;-83
2023/08/28 08:18:48;;;;;;;;;6.00;6.00;;;;;18.23;69.62;100616.22;6181073;23;45252;-85
2023/08/28 08:21:13;;;;;;;;;6.00;6.00;;;;;18.46;69.07;100639.25;6182083;23;45334;-84
2023/08/28 08:23:39;;;;;;;;;7.00;7.00;;;;;18.47;68.63;100629.34;6181389;22;45272;-86
2023/08/28 08:26:05;;;;;;;;;7.00;5.33;;;;;18.65;68.34;100624.22;6180617;23;45459;-84
2023/08/28 08:28:30;;;;;;;;;6.67;5.67;;;;;18.69;68.10;100620.25;6181310;23;45277;-84
2023/08/28 08:30:55;;;;;;;;;7.00;5.00;;;;;18.72;67.72;100611.88;6180164;23;45664;-84
2023/08/28 08:33:21;;;;;;;;;5.00;5.00;;;;;18.76;67.29;100634.88;6181944;22;45564;-87
2023/08/28 08:35:46;;;;;;;;;9.00;5.67;;;;;18.90;67.37;100653.34;6182004;22;46070;-84
2023/08/28 08:38:11;;;;;;;;;5.00;5.00;;;;;18.99;67.22;100641.72;6182095;22;48964;-84
2023/08/28 08:40:40;;;;;;;;;6.00;6.00;;;;;19.19;66.91;100650.72;6182817;23;45668;-84
2023/08/28 08:43:06;;;;;;;;;5.33;4.00;;;;;19.32;65.99;100645.91;6187640;22;45295;-87
2023/08/28 08:45:36;;;;;;;;;10.00;9.67;;;;;19.40;65.63;100629.88;6185287;22;45331;-88
2023/08/28 08:48:05;;;;;;;;;5.67;5.67;;;;;19.63;65.31;100640.38;6180834;23;45750;-83
2023/08/28 08:50:35;;;;;;;;;5.00;5.00;;;;;19.77;63.96;100637.25;6183584;22;45708;-84
2023/08/28 08:53:06;;;;;;;;;0.67;0.00;;;;;19.74;63.82;100618.66;6182574;22;45535;-85
2023/08/28 08:55:40;;;;;;;;;6.00;4.00;;;;;20.00;62.80;100638.63;6177720;22;46355;-85
2023/08/28 08:58:11;;;;;;;;;5.67;5.67;;;;;19.87;62.33;100646.19;6180916;22;45355;-84
2023/08/28 09:00:38;;;;;;;;;8.67;7.67;;;;;19.88;62.89;100650.59;6183403;23;45343;-86
2023/08/28 09:03:08;;;;;;;;;9.33;6.00;;;;;20.00;62.86;100646.72;6180455;22;45594;-84
2023/08/28 09:05:35;;;;;;;;;5.00;5.00;;;;;20.07;62.28;100651.56;6180773;22;45351;-85
2023/08/28 09:08:03;;;;;;;;;7.67;4.67;;;;;19.89;62.26;100617.19;6183963;22;45264;-83
2023/08/28 09:10:30;;;;;;;;;6.00;5.00;;;;;19.97;62.07;100638.06;6180850;23;45383;-86
2023/08/28 09:12:55;;;;;;;;;6.33;6.33;;;;;20.09;62.40;100641.47;6178082;23;45440;-85
2023/08/28 09:15:21;;;;;;;;;4.00;4.00;;;;;20.20;62.07;100652.09;6179805;23;48153;-84
2023/08/28 09:17:47;;;;;;;;;7.33;5.00;;;;;20.03;61.48;100616.72;6182995;22;45399;-85
2023/08/28 09:20:17;;;;;;;;;8.67;8.67;;;;;20.28;61.98;100652.19;6187381;23;45396;-87
2023/08/28 09:22:53;;;;;;;;;7.67;4.67;;;;;20.32;61.67;100632.03;6191625;22;45490;-87
2023/08/28 09:25:21;;;;;;;;;7.00;5.00;;;;;20.52;60.92;100611.19;6187317;22;45684;-87
2023/08/28 09:27:49;;;;;;;;;4.67;4.67;;;;;20.61;60.19;100578.72;6191638;23;45412;-84
2023/08/28 09:30:32;;;;;;;;;4.00;4.00;;;;;21.07;59.04;100630.94;6184697;22;45285;-83
2023/08/28 09:33:00;;;;;;;;;5.67;5.00;;;;;21.11;58.41;100601.75;6183766;22;45324;-88
2023/08/28 09:35:27;;;;;;;;;5.67;4.67;;;;;21.35;58.28;100628.19;6182979;22;46469;-84
2023/08/28 09:37:57;;;;;;;;;4.33;4.33;;;;;21.42;57.54;100623.88;6179622;23;45630;-84
2023/08/28 09:40:32;;;;;;;;;5.67;5.67;;;;;21.53;57.27;100584.91;6178837;22;45565;-85
2023/08/28 09:42:58;;;;;;;;;6.33;6.33;;;;;21.95;56.06;100618.38;6180973;23;45476;-84
2023/08/28 09:45:31;;;;;;;;;6.00;5.67;;;;;21.91;54.90;100624.28;6182489;22;45378;-83
2023/08/28 09:47:57;;;;;;;;;7.00;6.00;;;;;21.76;56.19;100607.78;6183195;22;45374;-84
2023/08/28 09:50:27;;;;;;;;;4.67;4.67;;;;;21.75;55.70;100620.44;6181269;23;45395;-85
2023/08/28 09:52:53;;;;;;;;;5.00;5.00;;;;;21.53;56.48;100623.66;6182985;23;45286;-83
2023/08/28 09:55:19;;;;;;;;;4.00;4.00;;;;;21.29;55.56;100616.16;6179273;23;47846;-83
2023/08/28 09:57:45;;;;;;;;;4.33;4.33;;;;;21.09;56.88;100628.91;6180713;23;45486;-82
2023/08/28 10:00:12;;;;;;;;;10.33;6.00;;;;;20.74;58.56;100613.50;6181703;23;45412;-84
2023/08/28 10:02:39;;;;;;;;;6.00;5.00;;;;;20.37;60.83;100650.47;6182312;22;45274;-86
2023/08/28 10:05:06;;;;;;;;;4.33;4.33;;;;;19.71;63.96;100627.03;6181200;22;46011;-84
2023/08/28 10:07:32;;;;;;;;;6.67;5.00;;;;;19.48;65.72;100648.03;6180451;22;45703;-84
2023/08/28 10:10:01;;;;;;;;;7.00;7.00;;;;;19.18;66.48;100645.47;6182050;23;45395;-84
2023/08/28 10:12:28;;;;;;;;;6.00;6.00;;;;;19.00;68.55;100642.56;6181903;22;45542;-84
2023/08/28 10:14:55;;;;;;;;;6.00;6.00;;;;;18.91;68.58;100652.38;6181433;22;45329;-84
2023/08/28 10:17:25;;;;;;;;;6.67;6.67;;;;;18.79;69.81;100635.44;6182359;22;45303;-82
2023/08/28 10:19:57;;;;;;;;;4.67;4.67;;;;;19.03;70.12;100656.66;6182440;22;45437;-85
2023/08/28 10:22:24;;;;;;;;;11.00;11.00;;;;;19.00;70.38;100639.88;6182499;22;45283;-81
2023/08/28 10:24:51;;;;;;;;;6.33;6.00;;;;;19.08;69.50;100631.97;6182017;22;46232;-87
2023/08/28 10:27:18;;;;;;;;;11.33;9.00;;;;;19.34;68.25;100651.16;6186237;23;45280;-83
2023/08/28 10:29:46;;;;;;;;;7.00;4.67;;;;;19.43;67.27;100653.84;6184942;23;45302;-85
2023/08/28 10:32:13;;;;;;;;;10.67;9.00;;;;;19.61;67.08;100653.16;6183800;22;45473;-83
2023/08/28 10:34:39;;;;;;;;;8.67;7.00;;;;;19.71;66.66;100646.78;6182067;22;45489;-85
2023/08/28 10:37:07;;;;;;;;;8.00;8.00;;;;;19.86;64.41;100649.88;6181585;22;45403;-87
2023/08/28 10:39:33;;;;;;;;;12.33;8.00;;;;;20.01;65.12;100652.97;6182918;23;45769;-85
2023/08/28 10:41:59;;;;;;;;;11.33;11.00;;;;;20.30;64.16;100661.00;6185228;22;45325;-86
2023/08/28 10:44:26;;;;;;;;;7.33;7.00;;;;;20.51;63.12;100648.16;6181765;23;45841;-86
2023/08/28 10:46:51;;;;;;;;;14.00;11.00;;;;;20.92;62.24;100643.28;6182349;22;45303;-85
2023/08/28 10:49:18;;;;;;;;;6.00;5.33;;;;;21.04;60.84;100623.13;6182135;22;45407;-84
2023/08/28 10:51:44;;;;;;;;;13.00;8.33;;;;;21.11;60.98;100599.03;6180307;23;45457;-85
2023/08/28 10:54:10;;;;;;;;;15.33;9.33;;;;;21.56;60.08;100639.56;6184661;22;46322;-84
2023/08/28 10:56:38;;;;;;;;;7.67;4.67;;;;;21.43;57.74;100588.53;6184239;23;45450;-84
2023/08/28 10:59:43;;;;;;;;;5.00;5.00;;;;;21.76;58.05;100646.50;6182177;23;45269;-82
2023/08/28 11:02:09;;;;;;;;;3.67;3.67;;;;;21.81;56.54;100646.03;6170700;23;45474;-84
2023/08/28 11:04:37;;;;;;;;;5.67;5.67;;;;;21.96;56.67;100630.06;6181874;22;46174;-82
2023/08/28 11:07:04;;;;;;;;;7.67;6.33;;;;;22.14;55.14;100636.34;6182814;22;45432;-84
2023/08/28 11:09:29;;;;;;;;;4.00;4.00;;;;;22.27;54.71;100634.03;6182735;23;45377;-84
2023/08/28 11:11:57;;;;;;;;;8.67;8.67;;;;;22.67;54.66;100635.25;6181773;23;45364;-85
2023/08/28 11:14:39;;;;;;;;;6.50;5.50;;;;;22.91;53.15;100627.22;6180227;23;47684;-84
2023/08/28 11:17:05;;;;;;;;;4.25;4.25;;;;;23.16;53.00;100628.13;6181533;22;45454;-82
2023/08/28 11:19:30;;;;;;;;;9.00;7.00;;;;;23.38;51.57;100618.50;6181832;23;45329;-86
2023/08/28 11:21:59;;;;;;;;;3.00;3.00;;;;;23.41;49.80;100615.44;6182656;23;45454;-85